TAF and METAR

No METAR available for Sam Mbakwe Airport

TAF for Sam Mbakwe Airport

TAF DNIM 011100Z 0112/0218 21010KT 5000 -TSRA BKN010 FEW019CB BECMG 0119/0121 00000KT 7000 NSW BKN009
Report created 1. apr 13:00

between 1. apr 14:00 - 2. apr 20:00

wind 10 knots from SSW (210°) visibility 5000 meters light thunderstorm and rain broken clouds (~75% cover) at 1000 feet some clouds (~25% cover) at 1900 feet of type cumulonimbus

becoming between 1. apr 21:00 - 1. apr 23:00

wind 0 knots from N (000°) visibility 7000 meters broken clouds (~75% cover) at 900 feet